Terminal Aerodrome Forecast
Issued by NWS Mobile, AL

Home | Current Version | Previous Version | Text Only | Print | Product List | Glossary On
Versions: 1 2 3 4 5 6 7 8 9 10 11 12 13 14 15 16 17 18 19 20 21 22 23 24 25 26 27 28
000
FTUS44 KMOB 222328
TAFMOB
TAF
KMOB 222328Z 2300/2324 00000KT P6SM -RA VCSH BKN100 BKN120
     FM230600 23004KT 5SM -TSRA BR BKN010CB
      TEMPO 2306/2310 2SM +TSRA BKN010CB
     FM231200 22007KT 5SM -TSRA BR BKN015CB
     FM232100 26010KT P6SM VCSH SCT015 BKN050=

USA.gov is the U.S. government's official web portal to all federal, state and local government web resources and services.